Time;durP1;ratioP1;P1;durP2;ratioP2;P2;SDS_P1;SDS_P2;PMS_P1;PMS_P2;Temp;Humidity;BMP_temperature;BMP_pressure;BME280_temperature;BME280_humidity;BME280_pressure;Samples;Min_cycle;Max_cycle;Signal;HPM_P1;HPM_P2
2022/11/01 00:01:47;;;;;;;42.70;22.42;;;13.50;99.90;;;;;;5045493;28;20216;-76
2022/11/01 00:04:36;;;;;;;42.25;22.63;;;13.50;99.90;;;;;;5048724;28;20263;-77
2022/11/01 00:07:26;;;;;;;40.80;22.27;;;13.50;99.90;;;;;;5044015;28;20221;-75
2022/11/01 00:10:15;;;;;;;40.35;22.33;;;13.50;99.90;;;;;;5042845;28;20227;-75
2022/11/01 00:13:08;;;;;;;42.55;21.83;;;13.40;99.90;;;;;;5047774;28;20830;-76
2022/11/01 00:15:57;;;;;;;45.20;22.08;;;13.40;99.90;;;;;;5047052;28;20706;-76
2022/11/01 00:18:46;;;;;;;38.72;21.13;;;13.30;99.90;;;;;;5029073;28;20308;-76
2022/11/01 00:21:34;;;;;;;45.72;21.67;;;13.40;99.90;;;;;;5040149;28;20782;-77
2022/11/01 00:24:25;;;;;;;40.17;21.45;;;13.40;99.90;;;;;;5046874;28;20240;-77
2022/11/01 00:27:13;;;;;;;41.05;22.15;;;13.40;99.90;;;;;;5031038;28;20236;-76
2022/11/01 00:30:02;;;;;;;39.08;20.92;;;13.40;99.90;;;;;;5020428;28;21397;-76
2022/11/01 00:32:51;;;;;;;43.08;22.10;;;13.50;99.90;;;;;;5044978;28;20216;-75
2022/11/01 00:35:39;;;;;;;43.30;21.58;;;13.50;99.90;;;;;;5046578;28;20227;-75
2022/11/01 00:38:29;;;;;;;48.47;22.20;;;13.40;99.90;;;;;;5030465;28;20526;-75
2022/11/01 00:41:19;;;;;;;51.53;22.70;;;13.40;99.90;;;;;;5030285;28;20224;-75
2022/11/01 00:44:08;;;;;;;46.83;21.77;;;13.40;99.90;;;;;;5040805;28;20236;-76
2022/11/01 00:46:57;;;;;;;44.53;22.70;;;13.60;99.90;;;;;;5051058;28;20711;-75
2022/11/01 00:49:46;;;;;;;43.45;22.48;;;13.60;99.90;;;;;;5064892;28;20223;-74
2022/11/01 00:52:35;;;;;;;42.08;21.15;;;13.60;99.90;;;;;;5033231;28;20220;-76
2022/11/01 00:55:23;;;;;;;46.85;21.92;;;13.60;99.90;;;;;;5050665;28;20232;-73
2022/11/01 00:58:14;;;;;;;43.65;21.45;;;13.60;99.90;;;;;;5044929;28;20251;-74
2022/11/01 01:01:02;;;;;;;53.38;22.45;;;13.60;99.90;;;;;;5038496;28;20711;-76
2022/11/01 01:03:51;;;;;;;44.75;22.10;;;13.60;99.90;;;;;;5033777;28;20232;-75
2022/11/01 01:06:40;;;;;;;43.92;21.55;;;13.60;99.90;;;;;;5024097;28;20224;-75
2022/11/01 01:09:29;;;;;;;47.03;22.23;;;13.60;99.90;;;;;;5026732;28;20758;-73
2022/11/01 01:12:17;;;;;;;47.85;21.90;;;13.60;99.90;;;;;;5042795;28;20217;-76
2022/11/01 01:15:09;;;;;;;44.88;21.52;;;13.60;99.90;;;;;;5043018;28;20264;-76
2022/11/01 01:17:58;;;;;;;48.70;22.40;;;13.60;99.90;;;;;;5047069;28;20290;-74
2022/11/01 01:20:48;;;;;;;41.85;21.65;;;13.50;99.90;;;;;;5048363;28;20220;-74
2022/11/01 01:23:37;;;;;;;47.90;22.23;;;13.50;99.90;;;;;;5042954;28;20321;-74
2022/11/01 01:26:25;;;;;;;50.33;22.23;;;13.60;99.90;;;;;;5050428;28;20270;-75
2022/11/01 01:29:15;;;;;;;46.03;23.13;;;13.60;99.90;;;;;;5057488;28;20221;-74
2022/11/01 01:32:05;;;;;;;44.92;23.88;;;13.50;99.90;;;;;;5031914;28;20232;-74
2022/11/01 01:34:54;;;;;;;41.20;22.60;;;13.30;99.90;;;;;;5030671;28;20224;-74
2022/11/01 01:37:43;;;;;;;41.08;21.05;;;13.40;99.90;;;;;;5043947;28;20220;-74
2022/11/01 01:40:32;;;;;;;43.53;22.02;;;13.40;99.90;;;;;;5038819;28;20220;-74
2022/11/01 01:43:21;;;;;;;38.25;22.13;;;13.30;99.90;;;;;;5044620;28;20364;-74
2022/11/01 01:46:10;;;;;;;39.65;20.77;;;13.30;99.90;;;;;;5044050;28;20232;-74
2022/11/01 01:49:00;;;;;;;42.38;21.55;;;13.30;99.90;;;;;;5028017;28;20315;-75
2022/11/01 01:51:49;;;;;;;44.40;20.88;;;13.30;99.90;;;;;;5039207;28;20612;-74
2022/11/01 01:54:38;;;;;;;41.67;21.67;;;13.30;99.90;;;;;;5047071;28;20225;-74
2022/11/01 01:57:27;;;;;;;37.08;20.77;;;13.20;99.90;;;;;;5052620;28;20721;-74
2022/11/01 02:00:17;;;;;;;37.80;21.20;;;13.10;99.90;;;;;;5037451;28;20755;-73
2022/11/01 02:03:07;;;;;;;38.88;21.45;;;13.10;99.90;;;;;;5031373;28;20224;-74
2022/11/01 02:06:00;;;;;;;42.47;20.55;;;13.10;99.90;;;;;;5041956;28;20232;-74
2022/11/01 02:08:53;;;;;;;34.33;20.45;;;13.10;99.90;;;;;;5044746;28;20217;-73
2022/11/01 02:11:41;;;;;;;36.78;19.88;;;13.10;99.90;;;;;;5043052;28;20225;-74
2022/11/01 02:14:30;;;;;;;38.22;19.77;;;13.10;99.90;;;;;;5038045;28;20221;-74
2022/11/01 02:17:27;;;;;;;57.38;19.13;;;13.10;99.90;;;;;;5032619;28;20216;-73
2022/11/01 02:20:35;;;;;;;35.45;18.27;;;13.00;99.90;;;;;;5025859;28;20229;-74
2022/11/01 02:23:59;;;;;;;43.85;19.08;;;13.10;99.90;;;;;;5043217;28;20330;-74
2022/11/01 02:27:13;;;;;;;39.92;18.67;;;13.10;99.90;;;;;;5056251;28;20224;-73
2022/11/01 02:30:14;;;;;;;32.75;18.67;;;13.10;99.90;;;;;;5026055;28;20583;-73
2022/11/01 02:33:11;;;;;;;29.17;17.65;;;13.00;99.90;;;;;;5042619;28;20221;-74
2022/11/01 02:36:05;;;;;;;30.55;17.63;;;13.10;99.90;;;;;;5030824;28;20229;-72
2022/11/01 02:39:01;;;;;;;36.72;18.30;;;13.00;99.90;;;;;;5041817;28;20270;-73
2022/11/01 02:41:57;;;;;;;34.72;16.83;;;13.00;99.90;;;;;;5039176;28;20232;-73
2022/11/01 02:44:52;;;;;;;41.90;18.63;;;12.90;99.90;;;;;;5057013;28;20239;-72
2022/11/01 02:47:41;;;;;;;31.17;17.45;;;12.90;99.90;;;;;;5029936;28;20231;-71
2022/11/01 02:50:37;;;;;;;33.85;17.65;;;12.80;99.90;;;;;;5046220;28;20232;-71
2022/11/01 02:53:25;;;;;;;45.10;17.55;;;12.70;99.90;;;;;;5025666;28;20228;-72
2022/11/01 02:56:15;;;;;;;31.10;17.25;;;12.70;99.90;;;;;;5028103;28;20220;-72
2022/11/01 02:59:06;;;;;;;54.85;17.95;;;12.80;99.90;;;;;;5043580;28;20581;-72
2022/11/01 03:02:01;;;;;;;52.78;17.50;;;12.70;99.90;;;;;;5033941;28;20225;-73
2022/11/01 03:04:50;;;;;;;39.33;17.27;;;12.60;99.90;;;;;;5032830;28;20289;-74
2022/11/01 03:07:44;;;;;;;31.17;17.75;;;12.50;99.90;;;;;;5027082;28;20213;-75
2022/11/01 03:10:42;;;;;;;38.58;16.70;;;12.70;99.90;;;;;;5034406;28;20264;-76
2022/11/01 03:13:46;;;;;;;25.15;16.65;;;12.70;99.90;;;;;;5056465;28;20224;-77
2022/11/01 03:16:42;;;;;;;35.35;16.58;;;12.70;99.90;;;;;;5041948;28;20216;-74
2022/11/01 03:19:37;;;;;;;35.60;17.27;;;12.70;99.90;;;;;;5041425;28;20220;-74
2022/11/01 03:22:31;;;;;;;35.35;17.77;;;12.60;99.90;;;;;;5037947;28;20212;-75
2022/11/01 03:25:38;;;;;;;37.90;18.25;;;12.60;99.90;;;;;;5060420;28;20240;-76
2022/11/01 03:28:31;;;;;;;34.42;18.48;;;12.70;99.90;;;;;;5039425;28;20553;-73
2022/11/01 03:31:23;;;;;;;38.58;18.58;;;12.70;99.90;;;;;;5051202;28;20217;-74
2022/11/01 03:34:15;;;;;;;49.85;19.20;;;12.70;99.90;;;;;;5041079;28;20720;-73
2022/11/01 03:37:06;;;;;;;54.72;18.13;;;12.70;99.90;;;;;;5040636;28;20244;-74
2022/11/01 03:39:57;;;;;;;43.72;19.15;;;12.70;99.90;;;;;;5043042;28;20225;-73
2022/11/01 03:42:50;;;;;;;33.92;18.27;;;12.50;99.90;;;;;;5026697;28;20664;-74
2022/11/01 03:45:40;;;;;;;41.30;20.23;;;12.70;99.90;;;;;;5044097;28;20224;-74
2022/11/01 03:48:29;;;;;;;41.65;18.80;;;12.70;99.90;;;;;;5041784;28;20229;-75
2022/11/01 03:51:18;;;;;;;33.60;19.30;;;12.60;99.90;;;;;;5038639;28;20257;-71
2022/11/01 03:54:09;;;;;;;30.83;18.13;;;12.50;99.90;;;;;;5044262;28;20222;-73
2022/11/01 03:56:58;;;;;;;48.92;18.50;;;12.70;99.90;;;;;;5059658;28;20315;-73
2022/11/01 03:59:48;;;;;;;36.85;18.95;;;12.70;99.90;;;;;;5026687;28;20745;-74
2022/11/01 04:02:37;;;;;;;33.47;18.45;;;12.70;99.90;;;;;;5059604;28;20217;-74
2022/11/01 04:05:27;;;;;;;32.75;19.10;;;12.70;99.90;;;;;;5050020;28;20707;-73
2022/11/01 04:08:16;;;;;;;35.20;18.55;;;12.70;99.90;;;;;;5044264;28;20221;-71
2022/11/01 04:11:05;;;;;;;34.25;19.55;;;12.70;99.90;;;;;;5028769;28;20713;-73
2022/11/01 04:20:31;;;;;;;62.50;18.70;;;12.60;99.90;;;;;;5043585;28;20224;-74
2022/11/01 04:23:18;;;;;;;30.75;18.02;;;12.50;99.90;;;;;;5023658;28;20236;-74
2022/11/01 04:26:08;;;;;;;31.35;18.92;;;12.40;99.90;;;;;;5046684;28;20221;-75
2022/11/01 04:28:56;;;;;;;30.98;16.52;;;12.50;99.90;;;;;;5046256;28;20823;-72
2022/11/01 04:31:45;;;;;;;27.55;18.35;;;12.50;99.90;;;;;;5028689;28;20225;-73
2022/11/01 04:34:44;;;;;;;31.63;17.73;;;12.50;99.90;;;;;;5024697;28;20592;-73
2022/11/01 04:37:33;;;;;;;54.72;17.10;;;12.50;99.90;;;;;;5046883;28;20225;-73
2022/11/01 04:40:21;;;;;;;55.85;17.63;;;12.50;99.90;;;;;;5044246;28;20846;-73
2022/11/01 04:43:11;;;;;;;49.67;18.23;;;12.30;99.90;;;;;;5043085;28;20252;-73
2022/11/01 04:45:59;;;;;;;25.45;17.42;;;12.30;99.90;;;;;;5027790;28;20786;-73
2022/11/01 04:48:48;;;;;;;54.22;17.30;;;12.30;99.90;;;;;;5042002;28;20755;-74
2022/11/01 04:51:39;;;;;;;40.00;17.30;;;12.20;99.90;;;;;;5040535;28;20699;-75
2022/11/01 04:54:32;;;;;;;32.78;17.50;;;12.20;99.90;;;;;;5029522;28;20227;-74
2022/11/01 04:57:24;;;;;;;34.35;16.05;;;12.20;99.90;;;;;;5041789;28;20229;-72
2022/11/01 05:00:14;;;;;;;26.15;16.20;;;12.20;99.90;;;;;;5042670;28;20850;-72
2022/11/01 05:03:04;;;;;;;30.67;16.45;;;12.20;99.90;;;;;;5033191;28;21061;-73
2022/11/01 05:05:54;;;;;;;27.67;16.98;;;12.20;99.90;;;;;;5028800;28;20232;-74
2022/11/01 05:08:44;;;;;;;55.67;15.85;;;12.30;99.90;;;;;;5025335;28;20229;-74
2022/11/01 05:11:33;;;;;;;35.17;15.77;;;12.30;99.90;;;;;;5049962;28;20320;-73
2022/11/01 05:14:21;;;;;;;37.03;17.15;;;12.20;99.90;;;;;;5044771;28;20216;-76
2022/11/01 05:17:11;;;;;;;37.15;15.68;;;12.10;99.90;;;;;;5035505;28;20228;-73
2022/11/01 05:19:59;;;;;;;33.50;16.33;;;12.30;99.90;;;;;;5046763;28;20246;-73
2022/11/01 05:22:48;;;;;;;36.95;15.95;;;12.30;99.90;;;;;;5031512;28;20781;-73
2022/11/01 05:25:38;;;;;;;51.08;15.40;;;12.40;99.90;;;;;;5040902;28;20279;-73
2022/11/01 05:28:27;;;;;;;33.90;16.05;;;12.30;99.90;;;;;;5039984;28;20228;-73
2022/11/01 05:31:15;;;;;;;46.75;16.42;;;12.40;99.90;;;;;;5022540;28;20264;-74
2022/11/01 05:34:04;;;;;;;50.05;16.42;;;12.30;99.90;;;;;;5043997;28;21728;-74
2022/11/01 05:36:54;;;;;;;41.70;16.80;;;12.30;99.90;;;;;;5043725;28;20221;-74
2022/11/01 05:39:42;;;;;;;31.83;16.88;;;12.30;99.90;;;;;;5044254;28;20217;-73
2022/11/01 05:42:32;;;;;;;47.05;16.75;;;12.30;99.90;;;;;;5053483;28;20229;-72
2022/11/01 05:45:21;;;;;;;30.65;15.95;;;12.30;99.90;;;;;;5046188;28;20261;-75
2022/11/01 05:48:10;;;;;;;52.97;16.77;;;12.40;99.90;;;;;;5027152;28;20290;-73
2022/11/01 05:50:59;;;;;;;47.50;16.80;;;12.40;99.90;;;;;;5042839;28;20700;-74
2022/11/01 05:53:48;;;;;;;43.78;17.50;;;12.30;99.90;;;;;;5039968;28;20244;-74
2022/11/01 05:56:37;;;;;;;39.13;18.77;;;12.40;99.90;;;;;;5031102;28;20220;-73
2022/11/01 05:59:27;;;;;;;34.75;19.30;;;12.40;99.90;;;;;;5048155;28;20221;-74
2022/11/01 06:02:16;;;;;;;60.50;18.33;;;12.40;99.90;;;;;;5036277;28;20221;-73
2022/11/01 06:05:05;;;;;;;62.83;18.95;;;12.50;99.90;;;;;;5034534;28;20727;-73
2022/11/01 06:07:54;;;;;;;41.75;18.75;;;12.50;99.90;;;;;;5036298;28;20233;-74
2022/11/01 06:10:42;;;;;;;42.17;18.40;;;12.60;99.90;;;;;;5036353;28;20339;-74
2022/11/01 06:13:32;;;;;;;36.30;18.13;;;12.50;99.90;;;;;;5042030;28;20229;-74
2022/11/01 06:16:24;;;;;;;34.58;19.70;;;12.60;99.90;;;;;;5019540;28;20232;-75
2022/11/01 06:19:13;;;;;;;40.78;19.08;;;12.70;99.90;;;;;;5038643;28;20230;-75
2022/11/01 06:22:01;;;;;;;40.20;18.95;;;12.70;99.90;;;;;;5038809;28;20294;-75
2022/11/01 06:24:50;;;;;;;58.13;18.40;;;12.70;99.90;;;;;;5039304;28;20289;-75
2022/11/01 06:27:39;;;;;;;33.15;19.63;;;12.50;99.90;;;;;;5034717;28;20247;-75
2022/11/01 06:30:27;;;;;;;35.88;19.55;;;12.50;99.90;;;;;;5033359;28;20225;-77
2022/11/01 06:33:18;;;;;;;49.92;19.30;;;12.60;99.90;;;;;;5033938;28;20264;-75
2022/11/01 06:36:07;;;;;;;47.20;19.65;;;12.50;99.90;;;;;;5036773;28;20217;-75
2022/11/01 06:38:56;;;;;;;41.05;18.48;;;12.50;99.90;;;;;;5026496;28;20229;-75
2022/11/01 06:41:45;;;;;;;49.70;18.75;;;12.50;99.90;;;;;;5040450;28;20530;-79
2022/11/01 06:44:33;;;;;;;48.33;19.15;;;12.50;99.90;;;;;;5044609;28;20236;-77
2022/11/01 06:47:23;;;;;;;62.42;20.45;;;12.50;99.90;;;;;;5042419;28;20229;-78
2022/11/01 06:50:14;;;;;;;39.00;20.25;;;12.50;99.90;;;;;;5035526;28;20233;-77
2022/11/01 06:53:03;;;;;;;43.55;20.45;;;12.60;99.90;;;;;;5030916;28;20599;-76
2022/11/01 06:55:52;;;;;;;50.15;20.65;;;12.70;99.90;;;;;;5034032;28;20213;-75
2022/11/01 06:58:41;;;;;;;40.78;20.98;;;12.70;99.90;;;;;;5036351;28;20216;-77
2022/11/01 07:01:29;;;;;;;46.10;22.05;;;12.70;99.90;;;;;;5027314;28;20570;-76
2022/11/01 07:04:18;;;;;;;72.68;21.48;;;12.70;99.90;;;;;;5040630;28;20221;-75
2022/11/01 07:07:08;;;;;;;89.30;22.05;;;12.50;99.90;;;;;;5035447;28;20233;-77
2022/11/01 07:09:57;;;;;;;49.65;23.35;;;12.50;99.90;;;;;;5051956;28;20236;-76
2022/11/01 07:12:45;;;;;;;52.75;22.30;;;12.50;99.90;;;;;;5045706;28;20228;-77
2022/11/01 07:15:35;;;;;;;49.38;23.30;;;12.50;99.90;;;;;;5034843;28;20422;-75
2022/11/01 07:18:23;;;;;;;39.88;24.00;;;12.60;99.90;;;;;;5053549;28;20310;-76
2022/11/01 07:21:12;;;;;;;70.85;23.17;;;12.70;99.90;;;;;;5028561;28;20236;-76
2022/11/01 07:24:03;;;;;;;54.70;22.50;;;12.40;99.90;;;;;;5052366;28;20233;-76
2022/11/01 07:26:51;;;;;;;49.60;23.52;;;12.60;99.90;;;;;;5028617;28;20300;-77
2022/11/01 07:29:41;;;;;;;50.47;23.92;;;12.50;99.90;;;;;;5037144;28;20220;-76
2022/11/01 07:32:29;;;;;;;46.60;24.35;;;12.60;99.90;;;;;;5041073;28;20229;-74
2022/11/01 07:35:18;;;;;;;38.55;22.98;;;12.80;99.90;;;;;;5045347;28;20280;-74
2022/11/01 07:38:07;;;;;;;66.93;26.15;;;12.70;99.90;;;;;;5054634;28;20227;-76
2022/11/01 07:41:03;;;;;;;41.47;23.77;;;12.60;99.90;;;;;;5042579;28;20572;-76
2022/11/01 07:43:53;;;;;;;45.15;24.55;;;12.70;99.90;;;;;;5036732;28;20241;-73
2022/11/01 07:46:42;;;;;;;42.88;23.52;;;12.90;99.90;;;;;;5044497;28;20224;-74
2022/11/01 07:49:30;;;;;;;56.92;23.50;;;12.80;99.90;;;;;;5053528;28;20234;-74
2022/11/01 07:52:19;;;;;;;39.70;24.30;;;12.80;99.90;;;;;;5045564;28;20220;-76
2022/11/01 07:55:09;;;;;;;39.83;24.85;;;12.90;99.90;;;;;;5029690;28;20722;-75
2022/11/01 07:57:59;;;;;;;48.55;23.38;;;12.80;99.90;;;;;;5038346;28;20236;-76
2022/11/01 08:00:48;;;;;;;35.70;22.70;;;12.80;99.90;;;;;;5040023;28;20289;-74
2022/11/01 08:03:38;;;;;;;45.08;22.55;;;12.90;99.90;;;;;;5031104;28;20228;-77
2022/11/01 08:06:26;;;;;;;40.40;22.67;;;12.80;99.90;;;;;;5055772;28;20264;-75
2022/11/01 08:09:15;;;;;;;38.05;23.83;;;12.70;99.90;;;;;;5028203;28;20217;-78
2022/11/01 08:12:04;;;;;;;33.25;21.83;;;12.80;99.90;;;;;;5029760;28;20385;-75
2022/11/01 08:14:54;;;;;;;37.92;22.67;;;12.90;99.90;;;;;;5045667;28;20224;-75
2022/11/01 08:17:43;;;;;;;37.28;22.83;;;12.90;99.90;;;;;;5044070;28;20244;-76
2022/11/01 08:20:32;;;;;;;34.63;22.85;;;12.80;99.90;;;;;;5060357;28;20304;-73
2022/11/01 08:23:21;;;;;;;35.92;22.58;;;12.90;99.90;;;;;;5042601;28;20224;-74
2022/11/01 08:26:10;;;;;;;38.97;22.50;;;13.00;99.90;;;;;;5039767;28;20233;-74
2022/11/01 08:28:59;;;;;;;33.20;21.65;;;13.10;99.90;;;;;;5042504;28;20220;-74
2022/11/01 08:31:49;;;;;;;32.42;21.85;;;13.00;99.90;;;;;;5042315;28;20217;-75
2022/11/01 08:34:38;;;;;;;35.42;22.95;;;13.10;99.90;;;;;;5045300;28;20221;-73
2022/11/01 08:37:26;;;;;;;37.28;23.48;;;13.00;99.90;;;;;;5040304;28;20224;-74
2022/11/01 08:40:15;;;;;;;32.75;22.60;;;13.00;99.90;;;;;;5057336;28;20707;-76
2022/11/01 08:43:04;;;;;;;38.53;23.23;;;13.00;99.90;;;;;;5048703;28;20235;-75
2022/11/01 08:45:53;;;;;;;42.40;23.27;;;12.90;99.90;;;;;;5030024;28;20224;-75
2022/11/01 08:48:43;;;;;;;38.35;22.92;;;12.90;99.90;;;;;;5044723;28;20669;-75
2022/11/01 08:51:32;;;;;;;42.03;23.27;;;13.10;99.90;;;;;;5045693;28;20315;-74
2022/11/01 08:54:20;;;;;;;36.88;23.63;;;13.10;99.90;;;;;;5026522;28;20229;-74
2022/11/01 08:57:09;;;;;;;38.05;24.17;;;13.10;99.90;;;;;;5043180;28;20724;-73
2022/11/01 08:59:58;;;;;;;36.65;23.98;;;13.20;99.90;;;;;;5035853;28;20220;-73
2022/11/01 09:02:47;;;;;;;38.55;23.20;;;13.20;99.90;;;;;;5042268;28;20283;-74
2022/11/01 09:05:37;;;;;;;41.13;23.58;;;13.20;99.90;;;;;;5055847;28;20684;-71
2022/11/01 09:08:26;;;;;;;39.85;23.67;;;13.10;99.90;;;;;;5044255;28;20224;-74
2022/11/01 09:11:14;;;;;;;35.58;23.83;;;13.20;99.90;;;;;;5046309;28;20225;-74
2022/11/01 09:14:03;;;;;;;37.47;23.55;;;13.20;99.90;;;;;;5041805;28;20228;-76
2022/11/01 09:16:52;;;;;;;32.38;22.20;;;13.10;99.90;;;;;;5044258;28;20216;-81
2022/11/01 09:19:41;;;;;;;46.83;22.98;;;13.20;99.90;;;;;;5051790;28;20229;-80
2022/11/01 09:22:31;;;;;;;38.13;22.02;;;13.20;99.90;;;;;;5040501;28;20435;-79
2022/11/01 09:25:20;;;;;;;34.72;21.88;;;13.10;99.90;;;;;;5041914;28;20280;-79
2022/11/01 09:28:09;;;;;;;39.42;22.55;;;12.90;99.90;;;;;;5040694;28;20715;-79
2022/11/01 09:31:01;;;;;;;34.83;23.02;;;13.20;99.90;;;;;;5052031;28;20233;-80
2022/11/01 09:34:10;;;;;;;34.33;23.42;;;13.20;99.90;;;;;;5041461;28;20229;-79
2022/11/01 09:36:59;;;;;;;32.63;22.10;;;13.20;99.90;;;;;;5052348;28;20217;-81
2022/11/01 09:39:49;;;;;;;36.28;22.35;;;13.20;99.90;;;;;;5043270;28;20660;-80
2022/11/01 09:42:42;;;;;;;41.95;23.63;;;13.30;99.90;;;;;;5042346;28;20221;-79
2022/11/01 09:45:34;;;;;;;34.55;22.90;;;13.20;99.90;;;;;;5022973;28;20225;-79
2022/11/01 09:48:24;;;;;;;36.67;24.02;;;13.30;99.90;;;;;;5017077;28;20221;-80
2022/11/01 09:51:20;;;;;;;40.15;24.40;;;13.30;99.90;;;;;;5017840;28;20226;-79
2022/11/01 09:54:10;;;;;;;46.65;24.42;;;13.40;99.90;;;;;;5016069;28;20222;-78
2022/11/01 09:57:11;;;;;;;53.17;24.42;;;13.30;99.90;;;;;;5004362;28;20233;-80
2022/11/01 10:00:05;;;;;;;40.95;25.10;;;13.40;99.90;;;;;;5022222;28;20236;-83
2022/11/01 10:03:17;;;;;;;39.55;24.27;;;13.40;99.90;;;;;;5018979;28;20703;-83
2022/11/01 10:06:16;;;;;;;37.30;24.52;;;13.50;99.90;;;;;;5018273;28;20623;-85
2022/11/01 10:09:12;;;;;;;38.08;24.55;;;13.60;99.90;;;;;;5010346;28;20241;-80
2022/11/01 10:12:25;;;;;;;41.45;25.48;;;13.60;99.90;;;;;;5020818;28;21316;-80
2022/11/01 10:15:32;;;;;;;33.95;22.95;;;13.60;99.90;;;;;;5016155;28;20230;-79
2022/11/01 10:18:27;;;;;;;31.83;21.70;;;13.60;99.90;;;;;;5020398;28;20224;-79
2022/11/01 10:21:17;;;;;;;32.75;22.40;;;13.60;99.90;;;;;;5019798;28;20272;-80
2022/11/01 10:24:07;;;;;;;32.72;22.02;;;13.60;99.90;;;;;;5026547;28;20226;-80
2022/11/01 10:27:02;;;;;;;32.65;23.35;;;13.70;99.90;;;;;;5006154;28;20245;-83
2022/11/01 10:30:01;;;;;;;35.60;24.23;;;13.60;99.90;;;;;;5025333;28;20214;-78
2022/11/01 10:32:54;;;;;;;36.03;23.75;;;13.60;99.90;;;;;;5022429;28;20585;-79
2022/11/01 10:35:45;;;;;;;35.72;24.58;;;13.50;99.90;;;;;;5003663;28;20226;-82
2022/11/01 10:38:39;;;;;;;38.97;25.75;;;13.50;99.90;;;;;;5018382;28;20222;-81
2022/11/01 10:41:51;;;;;;;37.10;24.83;;;13.40;99.90;;;;;;5008191;28;20221;-81
2022/11/01 10:44:43;;;;;;;38.88;27.73;;;13.50;99.90;;;;;;5035277;28;20232;-83
2022/11/01 10:47:33;;;;;;;42.75;26.67;;;13.50;99.90;;;;;;5041396;28;21098;-82
2022/11/01 10:50:24;;;;;;;37.05;26.05;;;13.40;99.90;;;;;;5052530;28;20596;-81
2022/11/01 10:53:14;;;;;;;38.05;26.48;;;13.60;99.90;;;;;;5051761;28;20257;-82
2022/11/01 10:56:07;;;;;;;45.53;27.75;;;13.70;99.90;;;;;;5036932;28;20255;-82
2022/11/01 10:59:01;;;;;;;42.15;27.40;;;13.70;99.90;;;;;;5052266;28;20232;-82
2022/11/01 11:01:52;;;;;;;46.42;28.95;;;13.40;99.90;;;;;;5038579;28;20217;-82
2022/11/01 11:04:42;;;;;;;43.35;28.63;;;13.50;99.90;;;;;;5038864;28;20402;-79
2022/11/01 11:07:32;;;;;;;44.58;27.60;;;13.60;99.90;;;;;;5024921;28;20228;-80
2022/11/01 11:10:25;;;;;;;42.60;28.67;;;13.40;99.90;;;;;;5040777;28;20223;-84
2022/11/01 11:13:18;;;;;;;44.72;29.67;;;13.40;99.90;;;;;;5056070;28;20224;-84
2022/11/01 11:16:13;;;;;;;46.72;29.00;;;13.50;99.90;;;;;;5047835;28;20235;-84
2022/11/01 11:19:14;;;;;;;44.95;28.48;;;13.50;99.90;;;;;;5059831;28;20238;-85
2022/11/01 11:22:09;;;;;;;54.40;30.33;;;13.60;99.90;;;;;;5043958;28;20712;-84
2022/11/01 11:24:59;;;;;;;48.67;30.27;;;13.70;99.90;;;;;;5029705;28;20220;-83
2022/11/01 11:27:51;;;;;;;48.53;30.52;;;13.50;99.90;;;;;;5040615;28;20687;-80
2022/11/01 11:30:47;;;;;;;51.60;31.13;;;13.60;99.90;;;;;;5045266;28;20579;-80
2022/11/01 11:33:37;;;;;;;55.92;30.88;;;13.60;99.90;;;;;;5032441;28;20252;-84
2022/11/01 11:36:28;;;;;;;51.17;30.98;;;13.50;99.90;;;;;;5048898;28;20232;-80
2022/11/01 11:39:37;;;;;;;49.15;31.80;;;13.40;99.90;;;;;;5043889;28;20911;-81
2022/11/01 11:42:26;;;;;;;51.65;31.25;;;13.40;99.90;;;;;;5028386;28;20223;-82
2022/11/01 11:45:27;;;;;;;70.90;30.65;;;13.30;99.90;;;;;;5040013;28;20229;-81
2022/11/01 11:48:22;;;;;;;58.50;29.63;;;13.10;99.90;;;;;;5048079;28;20327;-81
2022/11/01 11:51:11;;;;;;;54.40;30.33;;;13.00;99.90;;;;;;5060488;28;20227;-81
2022/11/01 11:54:20;;;;;;;47.08;30.15;;;13.20;99.90;;;;;;5034094;28;20221;-81
2022/11/01 11:57:14;;;;;;;40.92;28.20;;;13.30;99.90;;;;;;5042196;28;20292;-82
2022/11/01 12:00:06;;;;;;;44.90;27.75;;;13.30;99.90;;;;;;5046042;28;20625;-81
2022/11/01 12:03:04;;;;;;;44.10;27.38;;;13.30;99.90;;;;;;5057487;28;20256;-78
2022/11/01 12:06:00;;;;;;;42.55;27.20;;;13.40;99.90;;;;;;5029921;28;20209;-79
2022/11/01 12:08:50;;;;;;;45.05;27.50;;;13.40;99.90;;;;;;5037568;28;20217;-79
2022/11/01 12:11:45;;;;;;;46.55;29.83;;;13.50;99.90;;;;;;5054205;28;20225;-79
2022/11/01 12:14:38;;;;;;;46.65;29.05;;;13.40;99.90;;;;;;5046322;28;20217;-79
2022/11/01 12:17:31;;;;;;;43.88;28.27;;;13.50;99.90;;;;;;5030290;28;20224;-79
2022/11/01 12:20:22;;;;;;;45.85;28.50;;;13.50;99.90;;;;;;5056245;28;20685;-79
2022/11/01 12:23:16;;;;;;;44.90;27.77;;;13.60;99.90;;;;;;5045670;28;20308;-79
2022/11/01 12:26:12;;;;;;;48.85;29.77;;;13.50;99.90;;;;;;5043590;28;20783;-76
2022/11/01 12:29:16;;;;;;;47.83;29.13;;;13.50;99.90;;;;;;5029521;28;20227;-81
2022/11/01 12:32:12;;;;;;;46.60;30.10;;;13.50;99.90;;;;;;5060224;28;20235;-79
2022/11/01 12:35:06;;;;;;;49.25;30.95;;;13.40;99.90;;;;;;5054593;28;20713;-81
2022/11/01 12:38:17;;;;;;;46.20;30.02;;;13.40;99.90;;;;;;5041158;28;20588;-80
2022/11/01 12:41:24;;;;;;;49.33;29.83;;;13.50;99.90;;;;;;5029303;28;20600;-80
2022/11/01 12:44:35;;;;;;;44.40;30.25;;;13.60;99.90;;;;;;5024340;28;20278;-80
2022/11/01 12:47:31;;;;;;;58.17;31.70;;;13.60;99.90;;;;;;5028279;28;20224;-80
2022/11/01 12:50:23;;;;;;;54.72;31.38;;;13.40;99.90;;;;;;5041969;28;20726;-80
2022/11/01 12:53:16;;;;;;;49.45;30.50;;;13.50;99.90;;;;;;5028873;28;20228;-77
2022/11/01 12:56:05;;;;;;;56.17;31.50;;;13.40;99.90;;;;;;5042652;28;20213;-78
2022/11/01 12:58:57;;;;;;;51.08;31.45;;;13.30;99.90;;;;;;5043177;28;20927;-79
2022/11/01 13:01:55;;;;;;;53.05;31.95;;;13.20;99.90;;;;;;5037249;28;20218;-80
2022/11/01 13:04:53;;;;;;;51.08;31.13;;;13.30;99.90;;;;;;5026351;28;20607;-79
2022/11/01 13:07:55;;;;;;;49.70;31.52;;;13.30;99.90;;;;;;5039288;28;20235;-77
2022/11/01 13:10:47;;;;;;;49.50;31.38;;;13.30;99.90;;;;;;5039454;28;20227;-78
2022/11/01 13:13:46;;;;;;;55.97;31.73;;;13.40;99.90;;;;;;5042618;28;20727;-77
2022/11/01 13:16:39;;;;;;;49.28;31.83;;;13.40;99.90;;;;;;5039974;28;20219;-79
2022/11/01 13:19:37;;;;;;;51.22;31.70;;;13.40;99.90;;;;;;5048308;28;20316;-78
2022/11/01 13:22:35;;;;;;;54.67;31.70;;;13.30;99.90;;;;;;5042233;28;20232;-79
2022/11/01 13:25:30;;;;;;;54.08;31.08;;;13.30;99.90;;;;;;5043862;28;20926;-77
2022/11/01 13:28:33;;;;;;;48.10;31.55;;;13.40;99.90;;;;;;5053252;28;20217;-78
2022/11/01 13:31:35;;;;;;;55.08;31.55;;;13.40;99.90;;;;;;5041710;28;20299;-77
2022/11/01 13:34:45;;;;;;;59.13;31.15;;;13.40;99.90;;;;;;5040233;28;20691;-82
2022/11/01 13:37:43;;;;;;;52.47;31.70;;;13.30;99.90;;;;;;5054129;28;20248;-79
2022/11/01 13:40:37;;;;;;;59.65;32.50;;;13.20;99.90;;;;;;5037365;28;20233;-80
2022/11/01 13:43:33;;;;;;;58.08;33.15;;;13.00;99.90;;;;;;5054765;28;20298;-78
2022/11/01 13:46:38;;;;;;;54.70;31.17;;;13.00;99.90;;;;;;5056729;28;20225;-76
2022/11/01 13:49:45;;;;;;;55.60;32.35;;;13.00;99.90;;;;;;5036002;28;20221;-77
2022/11/01 13:52:42;;;;;;;56.47;32.75;;;13.00;99.90;;;;;;5030933;28;20229;-80
2022/11/01 13:55:37;;;;;;;50.60;32.22;;;13.00;99.90;;;;;;5033800;28;21116;-80
2022/11/01 13:58:27;;;;;;;51.75;31.35;;;13.20;99.90;;;;;;5043217;28;20235;-79
2022/11/01 14:01:35;;;;;;;51.35;30.55;;;13.20;99.90;;;;;;5033815;28;20231;-80
2022/11/01 14:04:55;;;;;;;54.53;29.83;;;13.20;99.90;;;;;;5037933;28;20229;-80
2022/11/01 14:08:12;;;;;;;50.63;29.70;;;13.20;99.90;;;;;;5035162;28;20235;-80
2022/11/01 14:11:01;;;;;;;52.58;29.73;;;13.20;99.90;;;;;;5021403;28;20232;-81
2022/11/01 14:13:50;;;;;;;52.35;30.55;;;13.00;99.90;;;;;;5030278;28;20229;-81
2022/11/01 14:16:38;;;;;;;53.92;29.00;;;13.00;99.90;;;;;;5035418;28;20235;-80
2022/11/01 14:19:27;;;;;;;47.03;28.40;;;13.00;99.90;;;;;;5041043;28;20782;-87
2022/11/01 14:22:27;;;;;;;45.83;26.98;;;13.00;99.90;;;;;;5044014;28;20255;-83
2022/11/01 14:25:31;;;;;;;49.13;26.73;;;13.00;99.90;;;;;;5034921;28;20228;-78
2022/11/01 14:28:21;;;;;;;48.92;26.33;;;12.90;99.90;;;;;;5041900;28;20619;-79
2022/11/01 14:31:10;;;;;;;43.33;26.17;;;12.80;99.90;;;;;;5030698;28;20244;-79
2022/11/01 14:34:01;;;;;;;47.17;26.08;;;12.80;99.90;;;;;;5038551;28;20225;-79
2022/11/01 14:36:53;;;;;;;44.05;25.80;;;12.90;99.90;;;;;;5024276;28;20240;-79
2022/11/01 14:39:50;;;;;;;49.53;25.38;;;13.00;99.90;;;;;;5021490;28;20224;-79
2022/11/01 14:42:44;;;;;;;47.28;26.95;;;13.00;99.90;;;;;;5035496;28;20228;-80